Stations météo

Publicité
Madrid, Espagne (8220): Température de l'air & dewpoint: 10.12.2018 15:00:00 - 16.12.2018 15:00:00 (CET)Madrid, Espagne (8220): Vitesse du vent & gusts: 10.12.2018 15:00:00 - 16.12.2018 15:00:00 (CET)Madrid, Espagne (8220): Direction du vent: 10.12.2018 15:00:00 - 16.12.2018 15:00:00 (CET)Madrid, Espagne (8220): Quantités de précipitations: 10.12.2018 15:00:00 - 16.12.2018 15:00:00 (CET)
Date & Time tt [°C] td [°C] ff [km/h] ff [knt] fx [km/h] fx [knt] dd rr [mm]
16.12.2018 15:00:00 - - - - - - - -
16.12.2018 14:00:00 11,2 6,5 18 10 41 22 WSW 0,0
16.12.2018 13:00:00 9,9 7,3 11 6 33 18 SW -
16.12.2018 12:00:00 9,0 6,8 13 7 26 14 SW 0,0
16.12.2018 11:00:00 7,9 5,9 4 2 15 8 SSE 0,0
16.12.2018 10:00:00 7,8 5,6 4 2 14 8 S 0,2
16.12.2018 09:00:00 7,7 5,5 4 2 24 13 S 0,0
16.12.2018 08:00:00 7,7 5,5 8 4 23 13 SW 0,0
16.12.2018 07:00:00 7,6 5,6 7 4 24 13 SW -
16.12.2018 06:00:00 7,5 5,5 4 2 21 11 S 0,0
16.12.2018 05:00:00 7,5 5,3 4 2 18 10 S 0,1
16.12.2018 04:00:00 7,5 5,3 4 2 17 9 S 0,0
16.12.2018 03:00:00 7,6 5,1 5 3 20 11 S 0,0
16.12.2018 02:00:00 8,1 5,0 5 3 21 11 SW 0,0
16.12.2018 01:00:00 8,1 5,0 5 3 21 11 SSW -
16.12.2018 00:00:00 8,2 5,1 4 2 21 11 SSW 0,0
15.12.2018 23:00:00 8,2 5,3 4 2 20 11 S 0,0
15.12.2018 22:00:00 8,5 5,6 10 5 19 10 SW 0,0
15.12.2018 21:00:00 8,3 5,6 4 2 22 12 SW 0,0
15.12.2018 20:00:00 8,3 5,6 9 5 23 12 SW 0,0
15.12.2018 19:00:00 8,3 5,5 8 5 19 11 WSW -
15.12.2018 18:00:00 8,5 5,1 4 2 14 8 SW 0,0
15.12.2018 17:00:00 8,7 3,6 1 1 7 4 S 0,0
15.12.2018 16:00:00 8,8 3,2 2 1 8 4 SSW 0,0
15.12.2018 15:00:00 8,5 3,0 3 2 9 5 S 0,0
15.12.2018 14:00:00 8,0 2,1 4 2 11 6 SSE 0,0
15.12.2018 13:00:00 8,0 1,7 1 1 9 5 WSW -
15.12.2018 12:00:00 6,9 1,9 3 1 8 4 W 0,0
15.12.2018 11:00:00 5,2 0,9 3 2 9 5 SW 0,0
15.12.2018 10:00:00 3,2 1,1 2 1 5 3 W 0,0
15.12.2018 09:00:00 0,7 -1,4 3 2 6 3 W 0,0
15.12.2018 08:00:00 0,4 -1,7 1 1 6 4 N 0,0
15.12.2018 07:00:00 0,2 -2,0 1 1 6 4 W -
15.12.2018 06:00:00 0,2 -2,2 4 2 8 5 NNW 0,0
15.12.2018 05:00:00 1,5 -1,0 2 1 6 4 E 0,0
15.12.2018 04:00:00 1,0 -1,7 4 2 10 5 E 0,0
15.12.2018 03:00:00 1,0 -2,0 5 3 7 4 NNW 0,0
15.12.2018 02:00:00 1,4 -2,0 3 1 6 4 WSW 0,0
15.12.2018 01:00:00 2,0 -1,7 3 2 9 5 E -
15.12.2018 00:00:00 3,0 -0,7 3 2 13 7 N 0,0
14.12.2018 23:00:00 3,0 -1,0 4 2 7 4 WNW 0,0
14.12.2018 22:00:00 3,5 -1,0 3 2 10 5 W 0,0
14.12.2018 21:00:00 3,7 -1,7 2 1 7 4 W 0,0
14.12.2018 20:00:00 4,0 -2,5 4 2 9 5 NW 0,0
14.12.2018 19:00:00 5,6 -3,3 5 3 21 11 NW -
14.12.2018 18:00:00 7,7 -3,6 2 1 18 10 NW 0,0
14.12.2018 17:00:00 11,1 -2,7 6 3 29 15 NW 0,0
14.12.2018 16:00:00 11,7 -1,7 14 8 27 15 WNW 0,0
14.12.2018 15:00:00 11,5 -2,0 11 6 30 16 WNW 0,0
14.12.2018 14:00:00 10,9 -2,0 15 8 35 19 NW 0,0
14.12.2018 13:00:00 10,5 -1,0 17 9 35 19 WNW -
14.12.2018 12:00:00 9,9 0,0 13 7 34 19 WNW 0,0
14.12.2018 11:00:00 7,8 -0,7 18 10 30 16 WNW 0,0
14.12.2018 10:00:00 5,6 0,6 15 8 22 12 WNW 0,0
14.12.2018 09:00:00 3,1 -0,5 12 7 17 9 WNW 0,0
14.12.2018 08:00:00 2,6 -0,7 8 5 22 12 NW 0,0
14.12.2018 07:00:00 1,5 -1,4 11 6 18 10 WNW -
14.12.2018 06:00:00 1,5 -1,7 4 2 19 10 NW 0,0
14.12.2018 05:00:00 1,5 -2,2 9 5 24 13 NW 0,0
14.12.2018 04:00:00 1,7 -2,2 4 2 9 5 W 0,0
14.12.2018 03:00:00 2,0 -2,5 2 1 6 3 S 0,0
14.12.2018 02:00:00 2,1 -3,3 1 1 8 5 E 0,0
14.12.2018 01:00:00 3,1 -3,6 5 3 24 13 WNW -
14.12.2018 00:00:00 4,6 -3,3 9 5 28 15 WNW 0,0
13.12.2018 23:00:00 5,0 -3,6 14 7 26 14 WNW 0,0
13.12.2018 22:00:00 5,4 -3,9 10 6 29 15 WNW 0,0
13.12.2018 21:00:00 5,4 -4,2 13 7 26 14 WNW 0,0
13.12.2018 20:00:00 6,8 -4,8 16 9 37 20 WNW 0,0
13.12.2018 19:00:00 7,3 -3,6 15 8 35 19 WNW -
13.12.2018 18:00:00 7,6 -1,4 14 7 45 24 WNW 0,0
13.12.2018 17:00:00 7,5 -0,5 29 16 60 32 WNW 0,0
13.12.2018 16:00:00 7,5 -0,5 28 15 56 30 WNW 0,0
13.12.2018 15:00:00 8,2 -0,7 24 13 52 28 W 0,0
13.12.2018 14:00:00 8,1 0,6 15 8 53 29 WNW 0,0
13.12.2018 13:00:00 7,5 -0,3 23 13 58 31 WNW -
13.12.2018 12:00:00 7,8 5,6 14 8 24 13 W 0,0
13.12.2018 11:00:00 5,3 3,2 8 4 24 13 WNW 0,8
13.12.2018 10:00:00 5,9 3,9 11 6 26 14 WNW 3,9
13.12.2018 09:00:00 7,4 5,3 4 2 16 9 SSE 0,5
13.12.2018 08:00:00 7,4 5,3 4 2 16 8 S 0,2
13.12.2018 07:00:00 7,4 5,3 3 2 19 11 S -
13.12.2018 06:00:00 7,2 5,0 5 3 18 10 SSE 0,0
13.12.2018 05:00:00 7,3 5,1 4 2 16 8 S 1,2
13.12.2018 04:00:00 7,3 5,0 4 2 20 11 S 1,2
13.12.2018 03:00:00 7,5 5,1 9 5 23 12 SW 0,5
13.12.2018 02:00:00 7,4 4,5 5 3 17 9 SW 0,0
13.12.2018 01:00:00 7,4 4,1 4 2 19 11 WSW -
13.12.2018 00:00:00 7,4 3,9 4 2 18 10 SW 0,0
12.12.2018 23:00:00 7,4 3,9 5 3 16 9 SSW 0,0
12.12.2018 22:00:00 7,4 3,9 2 1 14 8 S 0,0
12.12.2018 21:00:00 7,7 4,3 8 5 26 14 WSW 0,0
12.12.2018 20:00:00 8,1 4,6 3 2 17 9 S 0,0
12.12.2018 19:00:00 8,0 4,8 2 1 10 6 S -
12.12.2018 18:00:00 7,8 4,6 1 1 9 5 SSW 0,0
12.12.2018 17:00:00 7,9 4,6 2 1 9 5 WNW 0,0
12.12.2018 16:00:00 7,6 4,3 4 2 13 7 SW 0,0
12.12.2018 15:00:00 7,6 4,3 7 4 18 10 WSW 0,0
12.12.2018 14:00:00 - - - - - - - -
12.12.2018 13:00:00 - - - - - - - -
12.12.2018 12:00:00 5,7 3,8 2 1 8 4 SSE 0,0
12.12.2018 11:00:00 4,3 2,3 1 1 5 3 W 0,0
12.12.2018 10:00:00 2,9 0,9 0 0 5 3 SSE 0,0
12.12.2018 09:00:00 2,0 0,0 2 1 4 2 NNW 0,0
12.12.2018 08:00:00 2,1 0,2 3 1 5 3 ENE 0,0
12.12.2018 07:00:00 1,0 -1,0 0 0 4 2 N -
12.12.2018 06:00:00 0,6 -1,2 1 1 7 4 S 0,0
12.12.2018 05:00:00 0,6 -1,4 2 1 5 3 NNW 0,0
12.12.2018 04:00:00 1,2 -1,0 0 0 5 3 N 0,0
12.12.2018 03:00:00 2,1 -0,3 1 0 6 4 W 0,0
12.12.2018 02:00:00 2,7 0,2 4 2 6 3 NW 0,0
12.12.2018 01:00:00 3,0 0,0 2 1 6 3 NNW -
12.12.2018 00:00:00 4,3 0,9 4 2 7 4 E 0,0
11.12.2018 23:00:00 5,4 0,9 1 1 5 3 SW 0,0
11.12.2018 22:00:00 6,4 0,9 3 1 9 5 E 0,0
11.12.2018 21:00:00 6,9 0,9 2 1 6 3 SW 0,0
11.12.2018 20:00:00 8,2 0,4 4 2 10 6 SW 0,0
11.12.2018 19:00:00 8,9 -0,3 3 2 14 7 SW -
11.12.2018 18:00:00 10,9 -1,0 9 5 14 8 WSW 0,0
11.12.2018 17:00:00 12,2 -2,2 3 1 8 4 S 0,0
11.12.2018 16:00:00 13,1 -2,7 1 1 8 5 SSE 0,0
11.12.2018 15:00:00 13,2 -3,6 2 1 10 6 S 0,0
11.12.2018 14:00:00 13,4 -2,5 2 1 10 5 SSW 0,0
11.12.2018 13:00:00 12,2 -1,4 2 1 9 5 SW -
11.12.2018 12:00:00 9,4 -0,7 4 2 7 4 W 0,0
11.12.2018 11:00:00 5,7 0,9 1 0 4 2 S 0,0
11.12.2018 10:00:00 2,3 0,0 2 1 4 2 NNW 0,0
11.12.2018 09:00:00 1,0 -1,2 2 1 9 5 NE 0,0
11.12.2018 08:00:00 0,6 -1,7 4 2 6 3 NNW 0,0
11.12.2018 07:00:00 0,7 -1,4 2 1 6 4 E -
11.12.2018 06:00:00 0,8 -1,7 0 0 3 1 N 0,0
11.12.2018 05:00:00 1,1 -1,7 0 0 4 2 NNW 0,0
11.12.2018 04:00:00 1,6 -1,2 1 1 4 2 NW 0,0
11.12.2018 03:00:00 2,0 -1,2 2 1 4 2 NNE 0,0
11.12.2018 02:00:00 2,1 -1,4 0 0 5 3 N 0,0
11.12.2018 01:00:00 2,5 -1,4 2 1 4 2 WNW -
11.12.2018 00:00:00 3,5 -1,4 1 1 4 2 NW 0,0
10.12.2018 23:00:00 4,5 -1,7 1 1 3 1 NNE 0,0
10.12.2018 22:00:00 5,6 -1,4 1 0 4 2 N 0,0
10.12.2018 21:00:00 6,5 -1,0 2 1 5 3 N 0,0
10.12.2018 20:00:00 7,1 -1,7 0 0 7 4 ENE 0,0
10.12.2018 19:00:00 7,9 -3,6 5 3 7 4 N -
10.12.2018 18:00:00 9,3 -3,6 4 2 4 2 WNW 0,0
10.12.2018 17:00:00 12,6 -3,6 4 2 7 4 W 0,0
10.12.2018 16:00:00 15,7 -2,7 3 2 6 3 W 0,0
10.12.2018 15:00:00 15,9 -3,0 3 2 10 6 SW 0,0

tt = Température de l'air
td = dewpoint
ff = Vitesse du vent
fx = gusts
dd = Direction du vent
rr = Quantités de précipitations

stations d'obs. à proximité